createdAt,value
2019-02-21T00:02:22.016Z,20.67
2019-02-21T00:05:00.984Z,17.70
2019-02-21T00:07:32.952Z,17.53
2019-02-21T00:10:10.521Z,18.27
2019-02-21T00:12:43.116Z,18.63
2019-02-21T00:15:14.216Z,18.40
2019-02-21T00:17:47.803Z,19.23
2019-02-21T00:20:21.119Z,19.80
2019-02-21T00:22:55.133Z,18.00
2019-02-21T00:25:26.216Z,17.83
2019-02-21T00:28:00.716Z,18.93
2019-02-21T00:30:35.560Z,20.37
2019-02-21T00:33:10.442Z,17.30
2019-02-21T00:35:41.967Z,17.07
2019-02-21T00:38:17.848Z,18.23
2019-02-21T00:40:48.873Z,18.27
2019-02-21T00:43:19.781Z,19.33
2019-02-21T00:45:57.122Z,18.30
2019-02-21T00:48:29.345Z,19.00
2019-02-21T00:51:00.497Z,17.67
2019-02-21T00:53:38.847Z,18.77
2019-02-21T00:59:39.174Z,19.77
2019-02-21T01:02:12.168Z,21.70
2019-02-21T01:04:44.529Z,20.87
2019-02-21T01:07:20.508Z,20.10
2019-02-21T01:09:53.235Z,19.87
2019-02-21T01:12:24.289Z,20.17
2019-02-21T01:14:55.701Z,22.10
2019-02-21T01:17:27.029Z,21.07
2019-02-21T01:20:06.277Z,21.83
2019-02-21T01:22:41.332Z,21.40
2019-02-21T01:25:12.750Z,23.80
2019-02-21T01:27:47.008Z,23.07
2019-02-21T01:30:17.959Z,25.47
2019-02-21T01:32:53.779Z,23.10
2019-02-21T01:35:26.514Z,24.30
2019-02-21T01:38:17.464Z,23.83
2019-02-21T01:40:52.458Z,24.30
2019-02-21T01:43:25.308Z,24.27
2019-02-21T01:46:01.740Z,25.43
2019-02-21T01:48:33.712Z,22.93
2019-02-21T01:51:07.134Z,22.20
2019-02-21T01:53:42.711Z,22.40
2019-02-21T01:56:15.771Z,23.53
2019-02-21T01:58:47.773Z,23.87
2019-02-21T02:01:22.229Z,23.73
2019-02-21T02:03:53.567Z,25.30
2019-02-21T02:06:25.274Z,24.13
2019-02-21T02:08:58.493Z,24.90
2019-02-21T02:11:31.134Z,25.97
2019-02-21T02:14:03.875Z,26.00
2019-02-21T02:16:37.199Z,26.60
2019-02-21T02:19:09.112Z,28.73
2019-02-21T02:21:42.418Z,24.50
2019-02-21T02:24:17.711Z,27.73
2019-02-21T02:26:49.775Z,28.47
2019-02-21T02:29:29.928Z,26.90
2019-02-21T02:32:01.620Z,26.30
2019-02-21T02:34:33.976Z,25.33
2019-02-21T02:37:10.357Z,25.40
2019-02-21T02:39:42.225Z,25.63
2019-02-21T02:42:14.183Z,24.13
2019-02-21T02:44:46.109Z,24.90
2019-02-21T02:47:19.346Z,22.23
2019-02-21T02:49:53.505Z,22.30
2019-02-21T02:52:29.901Z,21.53
2019-02-21T02:55:02.539Z,20.47
2019-02-21T02:57:33.776Z,20.10
2019-02-21T03:00:10.568Z,20.37
2019-02-21T03:02:43.460Z,19.70
2019-02-21T03:05:18.120Z,19.20
2019-02-21T03:07:50.937Z,18.13
2019-02-21T03:10:24.618Z,18.00
2019-02-21T03:12:55.847Z,18.00
2019-02-21T03:15:27.218Z,18.00
2019-02-21T03:18:00.699Z,17.87
2019-02-21T03:20:32.869Z,16.73
2019-02-21T03:23:07.717Z,17.40
2019-02-21T03:25:40.757Z,20.10
2019-02-21T03:28:13.226Z,20.43
2019-02-21T03:30:55.935Z,18.30
2019-02-21T03:33:27.171Z,18.60
2019-02-21T03:35:59.368Z,18.10
2019-02-21T03:38:34.863Z,19.90
2019-02-21T03:41:12.619Z,20.90
2019-02-21T03:43:47.107Z,19.07
2019-02-21T03:46:19.148Z,16.07
2019-02-21T03:48:50.627Z,17.47
2019-02-21T03:51:22.706Z,17.87
2019-02-21T03:53:57.441Z,16.70
2019-02-21T03:56:29.152Z,17.13
2019-02-21T03:59:00.194Z,17.30
2019-02-21T04:01:32.920Z,18.03
2019-02-21T04:04:13.332Z,17.95
2019-02-21T04:06:48.450Z,20.10
2019-02-21T04:09:21.595Z,18.00
2019-02-21T04:12:03.956Z,19.43
2019-02-21T04:14:38.766Z,18.33
2019-02-21T04:17:13.888Z,18.40
2019-02-21T04:19:47.671Z,19.87
2019-02-21T04:22:19.884Z,19.37
2019-02-21T04:24:50.801Z,19.17
2019-02-21T04:27:27.436Z,19.77
2019-02-21T04:30:01.443Z,17.87
2019-02-21T04:32:34.235Z,18.20
2019-02-21T04:35:18.755Z,19.70
2019-02-21T04:37:53.259Z,17.43
2019-02-21T04:40:26.459Z,16.80
2019-02-21T04:43:12.593Z,19.50
2019-02-21T04:45:44.364Z,18.75
2019-02-21T04:48:17.012Z,18.53
2019-02-21T04:50:50.072Z,18.40
2019-02-21T04:53:30.327Z,18.37
2019-02-21T04:56:25.227Z,18.40
2019-02-21T04:58:57.473Z,16.50
2019-02-21T05:05:42.244Z,21.40
2019-02-21T05:08:17.231Z,19.40
2019-02-21T05:10:53.146Z,20.50
2019-02-21T05:13:25.890Z,18.87
2019-02-21T05:15:57.007Z,19.73
2019-02-21T05:18:42.669Z,21.23
2019-02-21T05:21:30.919Z,21.93
2019-02-21T05:24:09.366Z,19.83
2019-02-21T05:27:03.743Z,21.60
2019-02-21T05:29:41.998Z,21.70
2019-02-21T05:32:48.610Z,21.30
2019-02-21T05:35:46.338Z,23.60
2019-02-21T05:38:40.580Z,23.40
2019-02-21T05:41:31.431Z,24.53
2019-02-21T05:44:25.504Z,23.30
2019-02-21T05:47:16.157Z,27.52
2019-02-21T05:50:12.806Z,26.97
2019-02-21T05:53:08.813Z,24.50
2019-02-21T05:55:59.605Z,25.00
2019-02-21T05:58:45.844Z,28.20
2019-02-21T06:01:48.252Z,26.90
2019-02-21T06:05:08.733Z,26.10
2019-02-21T06:12:00.839Z,27.70
2019-02-21T06:18:20.424Z,34.40
2019-02-21T06:21:24.114Z,31.57
2019-02-21T06:24:16.683Z,32.50
2019-02-21T06:27:08.621Z,30.80
2019-02-21T06:33:52.606Z,29.67
2019-02-21T06:36:47.131Z,27.37
2019-02-21T06:39:37.289Z,27.70
2019-02-21T06:42:16.329Z,26.20
2019-02-21T06:44:51.989Z,31.70
2019-02-21T06:47:37.775Z,30.93
2019-02-21T06:50:26.451Z,29.10
2019-02-21T06:52:55.992Z,28.97
2019-02-21T06:55:31.542Z,31.73
2019-02-21T06:58:09.708Z,30.50
2019-02-21T07:00:49.547Z,35.48
2019-02-21T07:03:45.364Z,31.70
2019-02-21T07:06:32.187Z,32.30
2019-02-21T07:09:09.032Z,31.47
2019-02-21T07:11:48.429Z,34.47
2019-02-21T10:32:18.667Z,30.07
2019-02-21T10:35:07.632Z,32.30
2019-02-21T10:38:06.097Z,31.73
2019-02-21T10:40:54.864Z,33.03
2019-02-21T10:43:43.618Z,30.57
2019-02-21T10:47:05.406Z,29.23
2019-02-21T10:50:14.042Z,30.50
2019-02-21T10:53:43.067Z,28.70
2019-02-21T10:56:52.251Z,29.37
2019-02-21T10:59:47.377Z,27.80
2019-02-21T11:03:02.352Z,26.90
2019-02-21T11:06:07.685Z,31.57
2019-02-21T11:09:01.022Z,26.87
2019-02-21T11:11:39.332Z,28.27
2019-02-21T11:14:52.822Z,26.53
2019-02-21T11:17:57.706Z,24.87
2019-02-21T11:20:50.876Z,25.33
2019-02-21T11:23:52.873Z,35.70
2019-02-21T11:27:16.255Z,25.43
2019-02-21T11:33:21.884Z,25.10
2019-02-21T11:36:57.844Z,22.13
2019-02-21T11:43:19.502Z,22.77
2019-02-21T11:46:37.264Z,23.45
2019-02-21T11:52:11.541Z,21.23
2019-02-21T11:55:16.223Z,20.37
2019-02-21T11:58:25.705Z,19.23
2019-02-21T12:01:26.295Z,19.93
2019-02-21T12:07:12.787Z,19.87
2019-02-21T12:10:18.075Z,18.63
2019-02-21T12:13:15.342Z,20.13
2019-02-21T12:16:06.548Z,19.30
2019-02-21T12:19:03.586Z,18.70
2019-02-21T12:21:58.705Z,17.63
2019-02-21T12:28:31.471Z,15.97
2019-02-21T12:31:31.235Z,17.50
2019-02-21T12:34:44.698Z,17.43
2019-02-21T12:41:13.423Z,17.60
2019-02-21T12:44:31.541Z,18.73
2019-02-21T12:48:07.282Z,16.63
2019-02-21T12:51:07.795Z,15.47
2019-02-21T12:54:34.531Z,16.70
2019-02-21T12:58:02.780Z,18.13
2019-02-21T13:01:19.994Z,18.07
2019-02-21T13:08:08.116Z,16.57
2019-02-21T13:11:20.754Z,20.43
2019-02-21T13:18:43.771Z,18.17
2019-02-21T13:21:57.777Z,17.93
2019-02-21T13:24:40.724Z,18.83
2019-02-21T13:28:08.334Z,33.80
2019-02-21T13:31:36.920Z,19.90
2019-02-21T13:34:50.778Z,16.53
2019-02-21T13:38:03.737Z,18.13
2019-02-21T13:45:32.600Z,20.30
2019-02-21T13:49:09.153Z,18.20
2019-02-21T13:52:41.136Z,17.93
2019-02-21T13:56:58.447Z,20.90
2019-02-21T14:00:17.039Z,18.00
2019-02-21T14:12:32.873Z,17.07
2019-02-21T14:15:49.296Z,17.20
2019-02-21T14:19:00.537Z,18.00
2019-02-21T14:22:05.565Z,20.87
2019-02-21T14:25:21.921Z,19.53
2019-02-21T14:28:43.258Z,20.50
2019-02-21T14:32:24.342Z,19.57
2019-02-21T14:39:55.371Z,26.63
2019-02-21T14:43:16.252Z,22.60
2019-02-21T14:46:20.015Z,21.67
2019-02-21T15:09:35.050Z,21.63
2019-02-21T15:29:05.040Z,21.00
2019-02-21T15:33:15.495Z,20.83
2019-02-21T15:39:31.514Z,21.63
2019-02-21T15:42:31.020Z,21.17
2019-02-21T15:48:37.421Z,21.70
2019-02-21T15:51:48.963Z,25.40
2019-02-21T15:58:04.999Z,22.27
2019-02-21T16:01:08.818Z,21.57
2019-02-21T16:04:03.443Z,20.97
2019-02-21T16:06:51.680Z,24.63
2019-02-21T16:09:46.501Z,21.70
2019-02-21T16:12:33.409Z,20.80
2019-02-21T16:15:25.508Z,21.03
2019-02-21T16:18:15.204Z,20.87
2019-02-21T16:21:48.358Z,22.00
2019-02-21T16:24:28.339Z,20.67
2019-02-21T16:27:24.197Z,19.60
2019-02-21T16:45:53.716Z,20.30
2019-02-21T16:49:42.221Z,21.10
2019-02-21T16:56:58.014Z,21.47
2019-02-21T17:07:39.483Z,23.27
2019-02-21T17:10:48.298Z,21.10
2019-02-21T17:13:54.095Z,22.93
2019-02-21T19:02:02.268Z,22.17
2019-02-21T19:04:51.239Z,19.90
2019-02-21T19:07:58.488Z,19.17
2019-02-21T20:31:59.019Z,25.90
2019-02-21T20:34:59.371Z,25.73
2019-02-21T20:38:31.577Z,28.57
2019-02-21T20:45:37.591Z,31.90
2019-02-21T20:49:07.356Z,39.85
2019-02-21T20:52:47.399Z,36.70
2019-02-21T20:55:30.192Z,37.73
2019-02-21T20:58:51.855Z,40.00
2019-02-21T21:01:43.811Z,41.00
2019-02-21T21:04:42.330Z,39.00
2019-02-21T21:08:08.706Z,37.17
2019-02-21T21:12:03.056Z,40.30
2019-02-21T21:14:37.531Z,40.53
2019-02-21T21:17:59.387Z,45.57
2019-02-21T21:22:17.995Z,40.33
2019-02-21T21:24:58.106Z,43.13
2019-02-21T21:28:18.426Z,43.83
2019-02-21T21:31:34.768Z,49.77
2019-02-21T21:34:27.754Z,41.67
2019-02-21T21:37:25.702Z,42.23
2019-02-21T21:40:33.292Z,36.33
2019-02-21T21:43:50.250Z,38.17
2019-02-21T21:46:57.785Z,42.80
2019-02-21T21:49:44.942Z,46.10
2019-02-21T21:52:37.393Z,42.13
2019-02-21T21:55:37.366Z,41.60
2019-02-21T21:58:42.734Z,42.80
2019-02-21T22:01:59.970Z,42.00
2019-02-21T22:04:55.363Z,39.33
2019-02-21T22:12:03.661Z,41.70
2019-02-21T22:18:25.945Z,41.73
2019-02-21T22:21:49.676Z,38.97
2019-02-21T22:24:53.494Z,40.07
2019-02-21T22:28:09.758Z,42.65
2019-02-21T22:34:17.951Z,43.23
2019-02-21T22:37:36.705Z,41.67
2019-02-21T22:40:22.833Z,45.40
2019-02-21T22:43:45.340Z,48.67
2019-02-21T22:46:33.690Z,46.50
2019-02-21T22:49:16.421Z,50.07
2019-02-21T22:52:03.394Z,53.73
2019-02-21T22:54:47.194Z,56.03
2019-02-21T22:57:28.221Z,57.83
2019-02-21T23:00:13.066Z,51.17
2019-02-21T23:03:02.832Z,54.80
2019-02-21T23:06:13.418Z,79.73
2019-02-21T23:09:03.939Z,57.47
2019-02-21T23:12:08.404Z,58.38
2019-02-21T23:14:56.985Z,53.77
2019-02-21T23:17:39.108Z,55.53
2019-02-21T23:20:45.342Z,59.00
2019-02-21T23:23:54.301Z,52.40
2019-02-21T23:26:59.893Z,53.77
2019-02-21T23:29:33.933Z,54.90
2019-02-21T23:32:38.476Z,51.00
2019-02-21T23:38:50.787Z,51.60
2019-02-21T23:41:50.024Z,56.15
2019-02-21T23:44:27.539Z,51.50
2019-02-21T23:47:11.006Z,52.30
2019-02-21T23:50:01.741Z,53.83
2019-02-21T23:52:43.482Z,54.60
2019-02-21T23:55:28.817Z,54.38
2019-02-21T23:58:05.483Z,51.37
